Ridge Farm, IL (61870)

1:16 PM CDT on August 29, 2014 (GMT -0500)
Edgar County | Change Station
CLOSE
Current Station
Airport
Location: Paris,
Elevation: 653 ft
Nearby Weather Stations

Elev 653 ft 39.70 °N, 87.67 °W | Updated 21 minutes ago

Mostly Cloudy
Mostly Cloudy
85 °F
Feels Like 94 °F
N
6
Wind Variable Wind from South

Today
High -- | Low -- °F
--% Chance of Precip.
Yesterday
High -- | Low -- °F
Precip. -- in
6:15 AM 7:26 PM
Waxing Crescent, 15% visible
Pressure 29.99 in
Visibility 10.0 miles
Clouds Scattered Clouds 2300 ft
Scattered Clouds 3100 ft
Mostly Cloudy 6000 ft
Heat Index 94 °F
Dew Point 76 °F
Humidity 75%
Rainfall 0.00 in
Snow Depth Not available.
UV 5 out of 12
Pollen 10.20 out of 12
Air Quality Not available.
Flu Activity Not available.
METAR KPRG 291755Z AUTO 17005KT 10SM SCT023 SCT031 BKN060 29/25 A2999 RMK AO2 LTG DSNT W AND NW T02930245 10298 20211

More Conditions Fewer Conditions

Pressure 29.99 in
Visibility 10.0 miles
Clouds Scattered Clouds 2300 ft
Scattered Clouds 3100 ft
Mostly Cloudy 6000 ft
Heat Index 94 °F
Dew Point 76 °F
Humidity 75%
Rainfall 0.00 in
Snow Depth Not available.
UV 5 out of 12
Pollen 10.20 out of 12
Air Quality Not available.
Flu Activity Not available.
METAR KPRG 291755Z AUTO 17005KT 10SM SCT023 SCT031 BKN060 29/25 A2999 RMK AO2 LTG DSNT W AND NW T02930245 10298 20211

More Conditions Fewer Conditions

10-Day Weather Forecast

Almanac

Astronomy

Aug. 29, 2014 Rise Set
Actual Time 6:15 AM CDT 7:26 PM CDT
Civil Twilight 5:47 AM CDT 7:54 PM CDT
Nautical Twilight 5:14 AM CDT 8:27 PM CDT
Astronomical Twilight 4:39 AM CDT 9:02 PM CDT
Moon 10:04 AM CDT 9:24 PM CDT
Length of Visible Light 14h 06m
Length of Day
13h 10m
Tomorrow will be 2m 30s shorter.
Waxing Crescent, 15% of the Moon is Illuminated
Today
Waxing Crescent
Sep 2
First Quarter
Sep 8
Full
Sep 15
Last Quarter
Sep 24
New

Today's Extremes

State Highs State Lows

Community

WunderPhotos

Upload Photos

1,748,309 photos uploaded!

Nearby

Snow Depth

Station Depth Elevation
No new snow has been reported.

Earthquake Activity

City Distance Mag. Time & Date
No recent earthquake activity has been reported nearby.
Minimum magnitude displayed is 2.5.

Coastal Water Temperatures

Place Temperature
No Stations Reporting

Nearby Weather Stations